Flight Track Log - Related Links

Times and Time Zones

All times are in EDT time to prevent confusion due to time zone crossing. See the GJS6221 flight status page for this flight to view local times or setup timezone preferences in your user account.

Time Position Orientation Groundspeed Altitude Reporting Facility
EDT Latitude Longitude Course Direction KTS MPH feet Rate Location/Type
Fri 01:11:19 PM 40.8000 -73.8667 37° Northeast 136 157 900  Level New York TRACON
Fri 01:12:25 PM 40.8500 -73.8167 37° Northeast 216 249 3,400 2,567 Climbing New York TRACON
Fri 01:14:40 PM 40.9822 -73.7214 29° Northeast 260 299 9,500 2,369 Climbing Boston Center
Fri 01:15:40 PM 41.0622 -73.6569 31° Northeast 296 341 11,100 1,450 Climbing Boston Center
Fri 01:16:40 PM 41.1419 -73.5894 33° Northeast 353 406 12,400 1,700 Climbing Boston Center
Fri 01:17:40 PM 41.2428 -73.5111 30° Northeast 384 442 14,500 2,000 Climbing Boston Center
Fri 01:18:40 PM 41.3311 -73.4353 33° Northeast 403 464 16,400 1,800 Climbing Boston Center
Fri 01:19:40 PM 41.4381 -73.3483 31° Northeast 408 470 18,100 1,650 Climbing Boston Center
Fri 01:20:40 PM 41.5283 -73.2469 40° Northeast 413 475 19,700 1,550 Climbing Boston Center
Fri 01:21:40 PM 41.6225 -73.2011 20° North 413 475 21,200 1,300 Climbing Boston Center
Fri 01:22:40 PM 41.7350 -73.2106 356° North 382 440 22,300 1,050 Climbing Boston Center
Fri 01:23:40 PM 41.8558 -73.2206 356° North 397 457 23,300 1,100 Climbing Boston Center
Fri 01:24:40 PM 41.9744 -73.2331 356° North 410 472 24,500 1,100 Climbing Boston Center
Fri 01:25:40 PM 42.0933 -73.2458 355° North 427 491 25,500 1,000 Climbing Boston Center
Fri 01:26:40 PM 42.2183 -73.2586 356° North 433 498 26,500 750 Climbing Boston Center
Fri 01:27:40 PM 42.3517 -73.2661 358° North 438 504 27,000 200 Climbing Boston Center
Fri 01:28:40 PM 42.4703 -73.2789 355° North 438 504 26,900  Descending Boston Center
Fri 01:29:40 PM 42.5889 -73.2917 355° North 438 504 27,000 50 Climbing Boston Center
Fri 01:30:40 PM 42.7056 -73.3131 352° North 432 497 27,000  Level Boston Center
Fri 01:31:40 PM 42.8222 -73.3261 355° North 421 484 27,000 -100 Level Boston Center
Fri 01:32:40 PM 42.9386 -73.3392 355° North 421 484 26,800 -650 Descending Boston Center
Fri 01:33:40 PM 43.0597 -73.3381 360° North 426 490 25,700 -1,000 Descending Boston Center
Fri 01:34:40 PM 43.1786 -73.3228 North 421 484 24,800 -800 Descending Boston Center
Fri 01:35:40 PM 43.2994 -73.3072 North 421 484 24,100 -400 Descending Boston Center
Fri 01:36:40 PM 43.4017 -73.2917 North 421 484 24,000 -500 Descending Boston Center
Fri 01:37:40 PM 43.5228 -73.2761 North 416 479 23,100 -2,500 Descending Boston Center
Fri 01:38:40 PM 43.6375 -73.2606 North 416 479 19,000 -3,650 Descending Boston Center
Fri 01:39:40 PM 43.7564 -73.2478 North 406 467 15,800 -3,250 Descending Boston Center
Fri 01:40:40 PM 43.8606 -73.2347 North 381 438 12,500 -2,350 Descending Boston Center
Fri 01:41:40 PM 43.9567 -73.2217 North 361 415 11,100 -1,000 Descending Boston Center
Fri 01:42:40 PM 44.0483 -73.2114 North 345 397 10,500 -1,150 Descending Boston Center
Fri 01:43:40 PM 44.1275 -73.2008 North 303 349 8,800 -1,600 Descending Boston Center
Fri 01:44:40 PM 44.2047 -73.1900 North 288 331 7,300 -2,100 Descending Boston Center
Fri 01:45:40 PM 44.2694 -73.1475 25° Northeast 264 304 4,600 -1,650 Descending Boston Center
Fri 01:46:40 PM 44.3136 -73.0869 44° Northeast 252 290 4,000 -500 Descending Boston Center
Fri 01:47:40 PM 44.3658 -73.0672 15° North 203 234 3,600 -750 Descending Boston Center
Fri 01:48:40 PM 44.4136 -73.0764 352° North 179 206 2,500 -1,150 Descending Boston Center
Fri 01:49:40 PM 44.4428 -73.1058 324° Northwest 148 170 1,300 10,750 Descending Boston Center
Fri 01:50:40 PM 44.4675 -73.1469 310° West 132 152 24,000 11,350 Climbing Boston Center
Fri 01:51:40 PM 44.4758 -73.1586 315° West 116 133 24,000  Level Boston Center
Fri 01:52:40 PM 44.4758 -73.1644 270° West 43 49 24,000  Level Boston Center
Fri 01:53:40 PM 44.4694 -73.1528 127° Southeast 14 16 24,000  Level Boston Center
Fri 01:54:40 PM 44.4675 -73.1556 226° Southwest 12 14 24,000  Level Boston Center

Login

Don't have an account? Register now (free) for customized features, flight alerts, and more!